createdAt,value
2022-08-24T00:00:43.635Z,19.40
2022-08-24T00:03:13.148Z,19.40
2022-08-24T00:05:41.130Z,19.50
2022-08-24T00:08:10.316Z,19.40
2022-08-24T00:10:38.183Z,19.50
2022-08-24T00:13:06.408Z,19.50
2022-08-24T00:15:34.383Z,19.40
2022-08-24T00:18:02.303Z,19.20
2022-08-24T00:20:30.727Z,19.10
2022-08-24T00:22:59.273Z,19.00
2022-08-24T00:25:28.616Z,19.10
2022-08-24T00:27:56.774Z,19.10
2022-08-24T00:30:26.287Z,19.20
2022-08-24T00:32:54.818Z,19.10
2022-08-24T00:35:24.175Z,19.00
2022-08-24T00:37:53.413Z,19.00
2022-08-24T00:40:26.494Z,19.00
2022-08-24T00:42:58.067Z,19.00
2022-08-24T00:45:26.232Z,19.00
2022-08-24T00:47:59.003Z,18.90
2022-08-24T00:50:33.554Z,18.90
2022-08-24T00:53:04.264Z,18.90
2022-08-24T00:55:35.935Z,18.80
2022-08-24T00:58:15.542Z,18.80
2022-08-24T01:00:48.501Z,18.70
2022-08-24T01:03:17.452Z,18.70
2022-08-24T01:05:46.095Z,18.70
2022-08-24T01:08:15.661Z,18.60
2022-08-24T01:10:47.715Z,18.60
2022-08-24T01:13:17.839Z,18.50
2022-08-24T01:15:50.394Z,18.40
2022-08-24T01:18:39.401Z,18.50
2022-08-24T01:21:15.569Z,18.30
2022-08-24T01:23:47.975Z,18.20
2022-08-24T01:26:23.043Z,18.20
2022-08-24T01:28:55.838Z,18.20
2022-08-24T01:31:25.510Z,18.30
2022-08-24T01:33:55.501Z,18.20
2022-08-24T01:36:35.024Z,18.10
2022-08-24T01:39:10.746Z,18.20
2022-08-24T01:41:38.739Z,18.20
2022-08-24T01:44:07.175Z,18.30
2022-08-24T01:46:35.221Z,18.40
2022-08-24T01:49:03.407Z,18.20
2022-08-24T01:51:32.928Z,18.10
2022-08-24T01:54:02.939Z,18.00
2022-08-24T01:56:33.062Z,18.00
2022-08-24T01:59:01.952Z,17.90
2022-08-24T02:01:31.502Z,17.90
2022-08-24T02:04:01.715Z,18.00
2022-08-24T02:06:29.534Z,17.90
2022-08-24T02:08:57.457Z,17.90
2022-08-24T02:11:25.298Z,17.80
2022-08-24T02:13:54.734Z,17.90
2022-08-24T02:16:24.013Z,17.90
2022-08-24T02:18:51.868Z,18.00
2022-08-24T02:21:19.758Z,18.00
2022-08-24T02:23:47.598Z,17.90
2022-08-24T02:26:15.482Z,17.90
2022-08-24T02:28:43.268Z,17.80
2022-08-24T02:31:14.949Z,17.90
2022-08-24T02:33:43.135Z,18.00
2022-08-24T02:36:25.646Z,17.90
2022-08-24T02:38:54.472Z,17.80
2022-08-24T02:41:23.657Z,17.90
2022-08-24T02:43:51.479Z,17.80
2022-08-24T02:46:21.865Z,17.80
2022-08-24T02:48:58.116Z,17.70
2022-08-24T02:51:43.950Z,17.80
2022-08-24T02:54:13.495Z,17.70
2022-08-24T02:56:41.332Z,17.60
2022-08-24T02:59:09.193Z,17.60
2022-08-24T03:01:38.919Z,17.80
2022-08-24T03:04:07.208Z,17.60
2022-08-24T03:06:35.079Z,17.50
2022-08-24T03:09:03.327Z,17.40
2022-08-24T03:11:31.191Z,17.50
2022-08-24T03:13:59.432Z,17.40
2022-08-24T03:16:28.082Z,17.40
2022-08-24T03:18:57.362Z,17.40
2022-08-24T03:21:25.260Z,17.40
2022-08-24T03:23:53.235Z,17.40
2022-08-24T03:26:21.187Z,17.30
2022-08-24T03:28:49.682Z,17.20
2022-08-24T03:31:17.651Z,17.30
2022-08-24T03:33:45.643Z,17.30
2022-08-24T03:36:15.239Z,17.40
2022-08-24T03:38:43.507Z,17.40
2022-08-24T03:41:11.696Z,17.40
2022-08-24T03:43:49.623Z,17.40
2022-08-24T03:46:20.403Z,17.40
2022-08-24T03:48:49.773Z,17.30
2022-08-24T03:51:21.217Z,17.30
2022-08-24T03:53:49.066Z,17.30
2022-08-24T03:56:16.940Z,17.30
2022-08-24T03:58:44.825Z,17.20
2022-08-24T04:01:13.530Z,17.10
2022-08-24T04:03:43.523Z,17.10
2022-08-24T04:06:13.516Z,17.10
2022-08-24T04:08:44.084Z,17.10
2022-08-24T04:11:12.835Z,17.00
2022-08-24T04:13:40.798Z,16.90
2022-08-24T04:16:10.221Z,17.00
2022-08-24T04:18:38.287Z,17.00
2022-08-24T04:21:06.615Z,16.80
2022-08-24T04:23:39.355Z,16.80
2022-08-24T04:26:44.158Z,16.70
2022-08-24T04:29:08.150Z,16.70
2022-08-24T04:31:36.735Z,16.80
2022-08-24T04:34:04.756Z,16.70
2022-08-24T04:36:33.780Z,16.60
2022-08-24T04:39:02.160Z,16.60
2022-08-24T04:41:31.939Z,16.60
2022-08-24T04:44:00.491Z,16.60
2022-08-24T04:46:29.476Z,16.60
2022-08-24T04:48:57.623Z,16.50
2022-08-24T04:51:25.645Z,16.70
2022-08-24T04:53:53.515Z,16.70
2022-08-24T04:56:24.699Z,16.50
2022-08-24T04:58:55.248Z,16.60
2022-08-24T05:01:25.275Z,16.40
2022-08-24T05:03:55.307Z,16.40
2022-08-24T05:06:25.500Z,16.50
2022-08-24T05:08:53.815Z,16.50
2022-08-24T05:11:23.503Z,16.60
2022-08-24T05:13:54.650Z,16.70
2022-08-24T05:16:23.477Z,16.70
2022-08-24T05:18:51.619Z,16.80
2022-08-24T05:21:21.787Z,16.80
2022-08-24T05:23:50.739Z,16.80
2022-08-24T05:26:20.644Z,16.90
2022-08-24T05:28:48.652Z,16.90
2022-08-24T05:31:19.974Z,17.00
2022-08-24T05:33:48.830Z,16.90
2022-08-24T05:36:19.800Z,17.00
2022-08-24T05:38:48.848Z,17.10
2022-08-24T05:41:17.485Z,17.10
2022-08-24T05:43:45.542Z,17.20
2022-08-24T05:46:15.514Z,17.20
2022-08-24T05:48:52.716Z,17.20
2022-08-24T05:51:21.678Z,17.30
2022-08-24T05:53:49.954Z,17.20
2022-08-24T05:56:19.647Z,17.30
2022-08-24T05:58:48.731Z,17.40
2022-08-24T06:01:18.284Z,17.40
2022-08-24T06:03:48.306Z,17.50
2022-08-24T06:06:17.993Z,17.50
2022-08-24T06:08:48.369Z,17.60
2022-08-24T06:11:24.771Z,17.70
2022-08-24T06:14:01.828Z,17.80
2022-08-24T06:16:30.102Z,18.00
2022-08-24T06:18:59.317Z,18.00
2022-08-24T06:21:28.705Z,18.00
2022-08-24T06:23:57.273Z,18.10
2022-08-24T06:26:50.297Z,18.20
2022-08-24T06:29:18.837Z,18.20
2022-08-24T06:31:54.363Z,18.30
2022-08-24T06:34:26.624Z,18.30
2022-08-24T06:36:54.859Z,18.40
2022-08-24T06:39:22.734Z,18.60
2022-08-24T06:41:50.936Z,18.70
2022-08-24T06:44:18.779Z,18.80
2022-08-24T06:46:46.838Z,18.90
2022-08-24T06:49:14.950Z,19.00
2022-08-24T06:51:48.657Z,19.00
2022-08-24T06:54:20.745Z,19.20
2022-08-24T06:56:48.800Z,19.30
2022-08-24T06:59:16.803Z,19.40
2022-08-24T07:01:44.761Z,19.50
2022-08-24T07:04:12.841Z,19.60
2022-08-24T07:06:40.691Z,19.70
2022-08-24T07:09:09.850Z,19.80
2022-08-24T07:11:37.690Z,20.00
2022-08-24T07:14:07.139Z,20.20
2022-08-24T07:16:35.543Z,20.30
2022-08-24T07:19:04.494Z,20.50
2022-08-24T07:21:32.390Z,20.70
2022-08-24T07:24:02.343Z,20.80
2022-08-24T07:26:32.629Z,20.90
2022-08-24T07:29:05.905Z,21.20
2022-08-24T07:31:35.591Z,21.30
2022-08-24T07:34:04.522Z,21.50
2022-08-24T07:36:32.860Z,21.60
2022-08-24T07:39:00.755Z,21.70
2022-08-24T07:41:46.879Z,21.80
2022-08-24T07:44:19.652Z,22.10
2022-08-24T07:46:47.565Z,22.30
2022-08-24T07:49:36.190Z,22.50
2022-08-24T07:52:04.240Z,22.80
2022-08-24T07:54:32.104Z,23.30
2022-08-24T07:57:02.209Z,23.80
2022-08-24T07:59:31.407Z,24.30
2022-08-24T08:01:59.312Z,25.00
2022-08-24T08:04:27.727Z,25.70
2022-08-24T08:09:29.173Z,26.90
2022-08-24T08:11:57.108Z,27.30
2022-08-24T08:14:24.957Z,28.00
2022-08-24T08:16:54.484Z,28.60
2022-08-24T08:19:22.324Z,28.90
2022-08-24T08:22:10.177Z,28.90
2022-08-24T08:24:39.773Z,28.90
2022-08-24T08:27:07.965Z,28.90
2022-08-24T08:29:40.188Z,29.20
2022-08-24T08:32:10.372Z,29.40
2022-08-24T08:34:38.776Z,29.60
2022-08-24T08:37:07.271Z,29.70
2022-08-24T08:39:35.363Z,29.70
2022-08-24T08:42:20.082Z,29.90
2022-08-24T08:45:10.260Z,29.60
2022-08-24T08:48:47.390Z,29.60
2022-08-24T08:51:48.557Z,29.70
2022-08-24T08:54:31.008Z,30.00
2022-08-24T08:57:19.427Z,29.70
2022-08-24T09:00:04.659Z,29.90
2022-08-24T09:02:54.149Z,29.90
2022-08-24T09:05:57.401Z,29.70
2022-08-24T09:08:43.306Z,30.10
2022-08-24T09:11:32.339Z,30.10
2022-08-24T09:14:38.039Z,30.50
2022-08-24T09:17:18.673Z,30.70
2022-08-24T09:19:59.414Z,30.70
2022-08-24T09:22:28.762Z,31.00
2022-08-24T09:25:26.569Z,31.20
2022-08-24T09:28:10.303Z,31.40
2022-08-24T09:31:07.011Z,31.40
2022-08-24T09:33:42.176Z,31.60
2022-08-24T09:36:14.023Z,31.60
2022-08-24T09:38:59.318Z,31.50
2022-08-24T09:42:04.781Z,31.80
2022-08-24T09:44:58.646Z,31.70
2022-08-24T09:47:50.368Z,31.70
2022-08-24T09:50:45.399Z,32.10
2022-08-24T09:53:46.791Z,32.20
2022-08-24T09:56:42.193Z,32.50
2022-08-24T09:59:25.509Z,32.60
2022-08-24T10:02:09.164Z,32.50
2022-08-24T10:04:46.815Z,32.60
2022-08-24T10:07:25.080Z,32.70
2022-08-24T10:10:13.027Z,32.60
2022-08-24T10:12:57.127Z,32.70
2022-08-24T10:15:29.547Z,33.20
2022-08-24T10:18:12.971Z,33.10
2022-08-24T10:20:55.529Z,33.30
2022-08-24T10:23:48.519Z,33.70
2022-08-24T10:26:22.966Z,33.80
2022-08-24T10:29:12.113Z,33.70
2022-08-24T10:31:47.722Z,33.60
2022-08-24T10:34:31.055Z,33.40
2022-08-24T10:37:19.503Z,33.30
2022-08-24T10:40:13.029Z,33.20
2022-08-24T10:43:34.015Z,33.10
2022-08-24T10:46:27.472Z,33.20
2022-08-24T10:49:27.359Z,33.70
2022-08-24T10:52:26.390Z,33.80
2022-08-24T10:54:54.703Z,33.80
2022-08-24T10:57:30.318Z,33.90
2022-08-24T11:00:06.985Z,33.70
2022-08-24T11:02:38.175Z,33.20
2022-08-24T11:05:09.293Z,33.10
2022-08-24T11:07:38.515Z,33.20
2022-08-24T11:10:10.314Z,33.30
2022-08-24T11:12:41.020Z,33.20
2022-08-24T11:15:22.096Z,33.20
2022-08-24T11:17:57.670Z,32.90
2022-08-24T11:20:30.905Z,33.10
2022-08-24T11:23:07.764Z,33.10
2022-08-24T11:25:38.820Z,33.20
2022-08-24T11:28:15.169Z,33.40
2022-08-24T11:30:43.263Z,32.70
2022-08-24T11:33:29.422Z,32.80
2022-08-24T11:35:59.443Z,32.80
2022-08-24T11:38:30.650Z,32.70
2022-08-24T11:41:05.141Z,32.90
2022-08-24T11:43:50.651Z,32.60
2022-08-24T11:46:29.634Z,32.30
2022-08-24T11:49:08.962Z,32.10
2022-08-24T11:51:47.032Z,32.10
2022-08-24T11:54:24.694Z,32.30
2022-08-24T11:57:04.189Z,32.30
2022-08-24T11:59:45.413Z,32.60
2022-08-24T12:02:19.286Z,32.60
2022-08-24T12:04:58.884Z,32.50
2022-08-24T12:07:42.422Z,32.40
2022-08-24T12:10:27.615Z,32.30
2022-08-24T12:13:04.318Z,32.20
2022-08-24T12:15:43.572Z,32.10
2022-08-24T12:18:25.348Z,32.10
2022-08-24T12:20:55.489Z,32.20
2022-08-24T12:23:30.941Z,32.20
2022-08-24T12:26:04.333Z,32.20
2022-08-24T12:28:38.347Z,32.00
2022-08-24T12:31:14.133Z,32.10
2022-08-24T12:33:47.822Z,32.20
2022-08-24T12:36:23.858Z,32.20
2022-08-24T12:39:04.726Z,32.20
2022-08-24T12:41:37.178Z,32.20
2022-08-24T12:44:11.622Z,32.20
2022-08-24T12:46:40.340Z,31.90
2022-08-24T12:49:18.143Z,31.90
2022-08-24T12:52:06.427Z,31.60
2022-08-24T12:54:52.159Z,31.50
2022-08-24T12:57:34.975Z,31.50
2022-08-24T13:00:09.390Z,31.50
2022-08-24T13:02:47.631Z,31.50
2022-08-24T13:05:18.557Z,31.20
2022-08-24T13:07:50.454Z,31.20
2022-08-24T13:10:38.202Z,31.20
2022-08-24T13:13:16.602Z,31.20
2022-08-24T13:16:00.224Z,31.20
2022-08-24T13:18:50.546Z,31.20
2022-08-24T13:21:38.947Z,31.20
2022-08-24T13:24:48.397Z,31.10
2022-08-24T13:27:52.055Z,31.10
2022-08-24T13:30:27.116Z,31.10
2022-08-24T13:33:03.438Z,31.10
2022-08-24T13:35:54.721Z,30.90
2022-08-24T13:38:52.395Z,30.90
2022-08-24T13:41:34.684Z,30.90
2022-08-24T13:44:10.945Z,30.80
2022-08-24T13:46:51.811Z,30.80
2022-08-24T13:49:30.994Z,30.60
2022-08-24T13:52:11.440Z,30.70
2022-08-24T13:54:50.303Z,30.70
2022-08-24T13:57:32.487Z,30.80
2022-08-24T14:00:30.858Z,30.80
2022-08-24T14:03:21.969Z,30.90
2022-08-24T14:05:54.282Z,31.00
2022-08-24T14:08:36.186Z,30.80
2022-08-24T14:11:10.908Z,30.70
2022-08-24T14:13:58.548Z,30.60
2022-08-24T14:16:53.511Z,30.60
2022-08-24T14:19:32.235Z,30.50
2022-08-24T14:22:08.375Z,30.60
2022-08-24T14:24:45.911Z,30.60
2022-08-24T14:27:37.057Z,30.70
2022-08-24T14:30:40.344Z,30.60
2022-08-24T14:33:15.725Z,30.60
2022-08-24T14:35:59.340Z,30.50
2022-08-24T14:38:54.528Z,30.40
2022-08-24T14:41:31.493Z,30.40
2022-08-24T14:44:14.927Z,30.40
2022-08-24T14:46:52.653Z,30.40
2022-08-24T14:49:28.813Z,30.40
2022-08-24T14:52:14.527Z,30.30
2022-08-24T14:55:01.701Z,30.30
2022-08-24T14:57:46.260Z,30.20
2022-08-24T15:00:17.419Z,30.20
2022-08-24T15:03:12.431Z,30.20
2022-08-24T15:05:59.007Z,30.20
2022-08-24T15:08:42.855Z,30.20
2022-08-24T15:11:13.714Z,30.20
2022-08-24T15:13:46.744Z,30.20
2022-08-24T15:16:22.055Z,30.30
2022-08-24T15:18:57.748Z,30.30
2022-08-24T15:21:34.496Z,30.20
2022-08-24T15:24:13.939Z,30.20
2022-08-24T15:26:56.210Z,30.20
2022-08-24T15:29:27.646Z,30.20
2022-08-24T15:32:02.670Z,30.30
2022-08-24T15:34:37.082Z,30.30
2022-08-24T15:37:05.384Z,30.30
2022-08-24T15:39:34.898Z,30.20
2022-08-24T15:42:10.879Z,30.30
2022-08-24T15:44:41.034Z,30.20
2022-08-24T15:47:20.064Z,30.20
2022-08-24T15:49:51.715Z,30.10
2022-08-24T15:52:43.930Z,30.10
2022-08-24T15:55:29.795Z,30.00
2022-08-24T15:57:59.238Z,29.90
2022-08-24T16:00:55.012Z,29.90
2022-08-24T16:03:24.923Z,29.90
2022-08-24T16:05:55.357Z,29.90
2022-08-24T16:08:24.616Z,29.90
2022-08-24T16:10:57.465Z,29.90
2022-08-24T16:13:29.656Z,29.90
2022-08-24T16:16:03.102Z,29.90
2022-08-24T16:18:49.171Z,29.90
2022-08-24T16:21:22.087Z,29.80
2022-08-24T16:23:59.848Z,29.70
2022-08-24T16:26:31.334Z,29.70
2022-08-24T16:29:00.202Z,29.60
2022-08-24T16:31:46.271Z,29.50
2022-08-24T16:34:22.836Z,29.60
2022-08-24T16:36:50.697Z,29.50
2022-08-24T16:39:18.528Z,29.60
2022-08-24T16:41:48.008Z,29.60
2022-08-24T16:44:15.827Z,29.50
2022-08-24T16:46:48.205Z,29.50
2022-08-24T16:49:16.291Z,29.50
2022-08-24T16:51:45.170Z,29.40
2022-08-24T16:54:13.565Z,29.40
2022-08-24T16:56:42.168Z,29.30
2022-08-24T16:59:15.509Z,29.30
2022-08-24T17:01:43.360Z,29.20
2022-08-24T17:04:11.351Z,29.20
2022-08-24T17:06:39.292Z,29.20
2022-08-24T17:09:07.143Z,29.10
2022-08-24T17:11:37.488Z,29.10
2022-08-24T17:14:06.953Z,29.00
2022-08-24T17:16:36.762Z,28.90
2022-08-24T17:19:09.131Z,28.90
2022-08-24T17:21:37.828Z,28.80
2022-08-24T17:24:06.167Z,28.70
2022-08-24T17:26:34.128Z,28.60
2022-08-24T17:29:04.172Z,28.60
2022-08-24T17:31:33.499Z,28.60
2022-08-24T17:34:02.869Z,28.50
2022-08-24T17:36:32.286Z,28.50
2022-08-24T17:39:01.350Z,28.50
2022-08-24T17:41:29.303Z,28.40
2022-08-24T17:43:57.245Z,28.40
2022-08-24T17:46:25.397Z,28.40
2022-08-24T17:48:53.332Z,28.30
2022-08-24T17:51:22.575Z,28.30
2022-08-24T17:53:50.492Z,28.30
2022-08-24T17:56:19.132Z,28.30
2022-08-24T17:59:05.207Z,28.20
2022-08-24T18:01:34.791Z,28.20
2022-08-24T18:04:02.635Z,28.10
2022-08-24T18:06:32.354Z,28.20
2022-08-24T18:09:05.028Z,28.20
2022-08-24T18:11:33.340Z,28.10
2022-08-24T18:14:01.454Z,28.20
2022-08-24T18:16:29.354Z,28.20
2022-08-24T18:18:57.586Z,28.20
2022-08-24T18:21:25.431Z,28.00
2022-08-24T18:23:54.670Z,27.70
2022-08-24T18:26:27.943Z,27.60
2022-08-24T18:28:58.167Z,27.60
2022-08-24T18:31:28.674Z,27.40
2022-08-24T18:33:56.544Z,27.60
2022-08-24T18:36:24.392Z,27.50
2022-08-24T18:38:53.137Z,27.40
2022-08-24T18:41:24.951Z,27.30
2022-08-24T18:43:54.262Z,27.20
2022-08-24T18:46:22.525Z,27.20
2022-08-24T18:48:50.396Z,27.20
2022-08-24T18:51:20.875Z,27.00
2022-08-24T18:53:48.943Z,26.90
2022-08-24T18:56:17.042Z,26.90
2022-08-24T18:58:46.240Z,26.80
2022-08-24T19:01:14.316Z,26.80
2022-08-24T19:03:43.532Z,26.80
2022-08-24T19:06:11.396Z,26.70
2022-08-24T19:08:39.363Z,26.70
2022-08-24T19:11:08.014Z,26.70
2022-08-24T19:13:37.819Z,26.60
2022-08-24T19:16:07.322Z,26.60
2022-08-24T19:18:35.218Z,26.50
2022-08-24T19:21:03.166Z,26.60
2022-08-24T19:23:34.599Z,26.60
2022-08-24T19:26:03.555Z,26.50
2022-08-24T19:28:31.740Z,26.50
2022-08-24T19:31:02.227Z,26.50
2022-08-24T19:33:35.307Z,26.50
2022-08-24T19:36:03.619Z,26.50
2022-08-24T19:38:31.500Z,26.40
2022-08-24T19:41:00.783Z,26.40
2022-08-24T19:43:29.915Z,26.40
2022-08-24T19:46:05.334Z,26.40
2022-08-24T19:48:37.634Z,26.30
2022-08-24T19:51:07.091Z,26.30
2022-08-24T19:53:37.760Z,26.20
2022-08-24T19:56:06.562Z,26.20
2022-08-24T19:58:40.938Z,26.10
2022-08-24T20:01:13.173Z,26.00
2022-08-24T20:03:42.483Z,26.00
2022-08-24T20:06:10.414Z,26.10
2022-08-24T20:08:38.312Z,26.00
2022-08-24T20:11:07.253Z,26.10
2022-08-24T20:13:35.616Z,26.00
2022-08-24T20:16:05.710Z,26.00
2022-08-24T20:18:39.288Z,25.90
2022-08-24T20:21:09.279Z,25.90
2022-08-24T20:23:38.171Z,25.80
2022-08-24T20:26:07.995Z,25.80
2022-08-24T20:28:40.348Z,25.80
2022-08-24T20:31:09.227Z,25.70
2022-08-24T20:33:37.132Z,25.60
2022-08-24T20:36:05.891Z,25.60
2022-08-24T20:38:35.791Z,25.60
2022-08-24T20:41:03.694Z,25.60
2022-08-24T20:43:31.504Z,25.50
2022-08-24T20:45:59.407Z,25.50
2022-08-24T20:48:32.059Z,25.50
2022-08-24T20:51:00.627Z,25.40
2022-08-24T20:53:28.528Z,25.50
2022-08-24T20:56:00.017Z,25.40
2022-08-24T20:58:27.969Z,25.50
2022-08-24T21:00:55.918Z,25.50
2022-08-24T21:03:23.829Z,25.40
2022-08-24T21:05:52.495Z,25.30
2022-08-24T21:08:20.731Z,25.40
2022-08-24T21:10:48.527Z,25.40
2022-08-24T21:13:17.708Z,25.40
2022-08-24T21:15:46.000Z,25.30
2022-08-24T21:18:13.879Z,25.30
2022-08-24T21:20:44.618Z,25.30
2022-08-24T21:23:27.764Z,25.20
2022-08-24T21:25:55.773Z,25.10
2022-08-24T21:28:24.987Z,25.10
2022-08-24T21:30:52.986Z,25.10
2022-08-24T21:33:38.474Z,25.10
2022-08-24T21:36:07.208Z,25.10
2022-08-24T21:38:35.688Z,25.00
2022-08-24T21:41:04.142Z,24.90
2022-08-24T21:43:34.198Z,25.00
2022-08-24T21:46:02.011Z,25.00
2022-08-24T21:48:29.913Z,25.00
2022-08-24T21:50:57.822Z,24.90
2022-08-24T21:53:28.552Z,24.90
2022-08-24T21:55:57.201Z,24.90
2022-08-24T21:58:26.057Z,24.90
2022-08-24T22:00:59.417Z,24.90
2022-08-24T22:03:31.524Z,24.90
2022-08-24T22:06:08.504Z,24.80
2022-08-24T22:08:36.578Z,24.90
2022-08-24T22:11:04.840Z,24.90
2022-08-24T22:13:33.017Z,24.90
2022-08-24T22:16:03.060Z,24.90
2022-08-24T22:18:30.990Z,24.90
2022-08-24T22:20:58.858Z,24.90
2022-08-24T22:23:27.307Z,24.90
2022-08-24T22:25:55.848Z,24.90
2022-08-24T22:28:24.312Z,24.90
2022-08-24T22:30:52.166Z,24.90
2022-08-24T22:33:21.368Z,24.80
2022-08-24T22:35:50.373Z,24.80
2022-08-24T22:38:18.468Z,24.80
2022-08-24T22:40:46.627Z,24.80
2022-08-24T22:43:14.438Z,24.60
2022-08-24T22:45:42.266Z,24.50
2022-08-24T22:48:10.131Z,24.60
2022-08-24T22:50:43.098Z,24.40
2022-08-24T22:53:11.031Z,24.30
2022-08-24T22:55:38.836Z,24.10
2022-08-24T22:58:06.687Z,24.00
2022-08-24T23:00:35.520Z,23.90
2022-08-24T23:03:03.594Z,23.80
2022-08-24T23:05:31.685Z,23.80
2022-08-24T23:08:00.818Z,23.70
2022-08-24T23:10:28.624Z,23.60
2022-08-24T23:12:56.488Z,23.40
2022-08-24T23:15:24.336Z,23.40
2022-08-24T23:17:54.156Z,23.40
2022-08-24T23:20:21.078Z,23.30
2022-08-24T23:22:49.908Z,23.20
2022-08-24T23:25:19.102Z,23.30
2022-08-24T23:27:50.045Z,23.20
2022-08-24T23:30:18.091Z,22.90
2022-08-24T23:32:46.193Z,22.80
2022-08-24T23:35:14.157Z,23.00
2022-08-24T23:37:42.179Z,22.80
2022-08-24T23:40:11.593Z,22.70
2022-08-24T23:42:40.833Z,22.60
2022-08-24T23:45:12.337Z,22.40
2022-08-24T23:47:40.822Z,22.40
2022-08-24T23:50:11.111Z,22.30
2022-08-24T23:52:39.904Z,22.20
2022-08-24T23:55:20.131Z,22.10
2022-08-24T23:57:50.503Z,22.10
